Republic Airport
KFRG : now visible

Airfield :











YOU CAN JOIN US ON...

 
LOGIN :

Register | Disclaimer

   EN    FR    IT 

 









Legend :    VFR   Marginal VFR   IFR   Intensive IFR   Very Intensive IFR
Visi :
Ceiling :
>= 8 km
>= 3000ft
5 to 8 km
1000 to 3000 ft
1500m to 5 km
500 to 1000 ft
800 to 1500m
200 to 500 ft
< 800m
< 200 ft
Symbols :   Thunderstorms  Fog  Heavy snow  Heavy precipitations  Wind > 20 kt






- Airport Elevation : 82 ft


KFRG - Republic

CURRENT METAR :
  • 142053Z 20017G24KT 1/4SM FG VV002 12/11 A2923 RMK AO2 SFC VIS 1/2 RAB11E24 SLP897 P0000 60000 T01220111 56026 $

EXPIRED METARs :
  • 141953Z 19016G21KT 1/4SM FG VV002 12/12 A2923 RMK AO2 SFC VIS 1/2 SLP899 T01220117 $
  • 141935Z 19017KT 1/4SM FG VV002 12/12 A2924 RMK AO2 SFC VIS 1/2 T01220117 $
  • 141853Z 16013KT 1/2SM BR OVC003 13/12 A2926 RMK AO2 SFC VIS 3/4 RAB03E13 SLP909 P0000 T01330122 $
  • 141810Z 14008KT 1SM -RA BR VV003 13/13 A2929 RMK AO2 RAB03 P0000 T01330128 $

TAF N/A



MET'MAP, your aeronautical weather chart ! - Copyright ORBIFLY December 2007 - Disclaimer

ORBIFLY MET'MAP TEAM :

Programming & Development : Alexandra Zaïnal
Concept & original design : Baudouin d'Aumeries
Assistance for programming : Marc-Olivier Méhu
Technical & hardware support : Manuel Goepfert

Contact : metmap@orbifly.com




SOURCES & CREDITS :

   NOAA       Earth
Advisory